Portada
METAR-TAF:

METAR-TAF

Aeropuertos :

Aeropuerto Internacional de Chuuk

Weno, Micronesia

latitud: 07-28N, longitud: 151-51E, altitud: 3 m

Observación

El informe se hizo hace 25 minutos, a las 17:55 UTC
Viento 6 kt del este
Temperatura 27°C
Humedad 94%
Presión 1008 hPa
Visibilidad: 24.1 km
Escasas nubes a una altura de 1400 ft
Nubes dispersas a una altura de 28000 ft

METAR: PTKK 061755Z 08006KT 15SM FEW014 SCT280 27/26 A2978 RMK SLP088 60015 8/101 T02650261 10265 20252 56008

Hora: 04:20 (18:20 UTC)

Pronóstico

El informe se hizo hace 1 hora y 0 minutos, a las 17:20 UTC
Pronóstico válido del 06 a las 18 UTC al 07 a las 18 UTC
Viento 6 kt del este
Visibilidad: 10 km
Nubes dispersas a una altura de 1500 ft
chaparrones en las proximidades

TAF: PTKK 061720Z 0618/0718 08006KT P6SM VCSH SCT015

Observaciones y pronósticos meteorológicos de más de 4000 aeropuertos (mensajes METAR y TAF).

Los puntos amarillos y rojos representan las estaciones disponibles.

Ponga el ratón en el punto deseado para ver el nombre de la estación.

Haga clic para ver las observaciones y los pronósticos meteorológicos.

Para cambiar el mapa : haga clic en los botones verdes con una cruz de color negro para hacer un zoom, en el botón verde con un guión para alejar o en las flechas verdes para mapas adyacentes.


METAR-TAF: